sensor_id;sensor_type;location;lat;lon;timestamp;pressure;altitude;pressure_sealevel;temperature
81319;BMP280;74078;48.420;14.828;2024-02-23T00:00:47;90532.53;;;8.35
81319;BMP280;74078;48.420;14.828;2024-02-23T00:03:12;90526.69;;;7.96
81319;BMP280;74078;48.420;14.828;2024-02-23T00:05:38;90537.69;;;7.71
81319;BMP280;74078;48.420;14.828;2024-02-23T00:08:03;90537.69;;;7.76
81319;BMP280;74078;48.420;14.828;2024-02-23T00:10:28;90538.81;;;7.59
81319;BMP280;74078;48.420;14.828;2024-02-23T00:12:53;90533.25;;;7.55
81319;BMP280;74078;48.420;14.828;2024-02-23T00:15:19;90526.34;;;7.50
81319;BMP280;74078;48.420;14.828;2024-02-23T00:17:44;90521.84;;;7.17
81319;BMP280;74078;48.420;14.828;2024-02-23T00:20:09;90529.34;;;7.06
81319;BMP280;74078;48.420;14.828;2024-02-23T00:22:40;90528.63;;;7.00
81319;BMP280;74078;48.420;14.828;2024-02-23T00:25:05;90533.69;;;7.00
81319;BMP280;74078;48.420;14.828;2024-02-23T00:27:30;90523.47;;;7.25
81319;BMP280;74078;48.420;14.828;2024-02-23T00:29:55;90525.88;;;7.46
81319;BMP280;74078;48.420;14.828;2024-02-23T00:32:21;90522.69;;;7.51
81319;BMP280;74078;48.420;14.828;2024-02-23T00:34:46;90522.88;;;7.53
81319;BMP280;74078;48.420;14.828;2024-02-23T00:37:11;90520.06;;;7.28
81319;BMP280;74078;48.420;14.828;2024-02-23T00:39:36;90517.59;;;7.40
81319;BMP280;74078;48.420;14.828;2024-02-23T00:42:02;90502.88;;;7.38
81319;BMP280;74078;48.420;14.828;2024-02-23T00:44:28;90501.06;;;7.50
81319;BMP280;74078;48.420;14.828;2024-02-23T00:46:53;90493.50;;;7.55
81319;BMP280;74078;48.420;14.828;2024-02-23T00:49:18;90496.25;;;7.52
81319;BMP280;74078;48.420;14.828;2024-02-23T00:51:43;90500.16;;;7.47
81319;BMP280;74078;48.420;14.828;2024-02-23T00:54:09;90504.25;;;7.45
81319;BMP280;74078;48.420;14.828;2024-02-23T00:56:34;90505.34;;;7.21
81319;BMP280;74078;48.420;14.828;2024-02-23T00:59:00;90508.41;;;7.37
81319;BMP280;74078;48.420;14.828;2024-02-23T01:01:25;90507.88;;;7.21
81319;BMP280;74078;48.420;14.828;2024-02-23T01:03:51;90508.53;;;7.16
81319;BMP280;74078;48.420;14.828;2024-02-23T01:06:16;90515.94;;;7.31
81319;BMP280;74078;48.420;14.828;2024-02-23T01:08:42;90512.00;;;7.24
81319;BMP280;74078;48.420;14.828;2024-02-23T01:11:07;90514.06;;;7.20
81319;BMP280;74078;48.420;14.828;2024-02-23T01:13:32;90515.72;;;7.35
81319;BMP280;74078;48.420;14.828;2024-02-23T01:15:58;90522.28;;;7.69
81319;BMP280;74078;48.420;14.828;2024-02-23T01:18:23;90521.41;;;7.83
81319;BMP280;74078;48.420;14.828;2024-02-23T01:20:48;90520.94;;;7.79
81319;BMP280;74078;48.420;14.828;2024-02-23T01:23:13;90511.78;;;8.09
81319;BMP280;74078;48.420;14.828;2024-02-23T01:25:39;90522.84;;;8.17
81319;BMP280;74078;48.420;14.828;2024-02-23T01:28:04;90530.44;;;8.28
81319;BMP280;74078;48.420;14.828;2024-02-23T01:30:29;90540.09;;;8.41
81319;BMP280;74078;48.420;14.828;2024-02-23T01:32:54;90541.03;;;8.55
81319;BMP280;74078;48.420;14.828;2024-02-23T01:35:20;90552.09;;;8.46
81319;BMP280;74078;48.420;14.828;2024-02-23T01:37:45;90551.38;;;8.34
81319;BMP280;74078;48.420;14.828;2024-02-23T01:40:10;90569.75;;;8.18
81319;BMP280;74078;48.420;14.828;2024-02-23T01:42:36;90567.19;;;8.07
81319;BMP280;74078;48.420;14.828;2024-02-23T01:45:01;90581.50;;;8.16
81319;BMP280;74078;48.420;14.828;2024-02-23T01:47:27;90588.16;;;8.13
81319;BMP280;74078;48.420;14.828;2024-02-23T01:49:53;90584.00;;;8.10
81319;BMP280;74078;48.420;14.828;2024-02-23T01:52:19;90587.94;;;8.17
81319;BMP280;74078;48.420;14.828;2024-02-23T01:54:45;90589.31;;;8.18
81319;BMP280;74078;48.420;14.828;2024-02-23T01:57:11;90597.38;;;8.16
81319;BMP280;74078;48.420;14.828;2024-02-23T01:59:36;90602.91;;;8.20
81319;BMP280;74078;48.420;14.828;2024-02-23T02:02:03;90612.53;;;8.05
81319;BMP280;74078;48.420;14.828;2024-02-23T02:04:28;90611.13;;;8.04
81319;BMP280;74078;48.420;14.828;2024-02-23T02:06:53;90620.94;;;7.85
81319;BMP280;74078;48.420;14.828;2024-02-23T02:09:19;90624.34;;;7.77
81319;BMP280;74078;48.420;14.828;2024-02-23T02:11:46;90641.09;;;7.69
81319;BMP280;74078;48.420;14.828;2024-02-23T02:14:12;90649.78;;;7.57
81319;BMP280;74078;48.420;14.828;2024-02-23T02:16:38;90661.00;;;7.50
81319;BMP280;74078;48.420;14.828;2024-02-23T02:19:03;90667.88;;;7.44
81319;BMP280;74078;48.420;14.828;2024-02-23T02:21:28;90677.72;;;7.37
81319;BMP280;74078;48.420;14.828;2024-02-23T02:23:54;90686.84;;;7.34
81319;BMP280;74078;48.420;14.828;2024-02-23T02:26:19;90690.16;;;7.14
81319;BMP280;74078;48.420;14.828;2024-02-23T02:28:44;90701.56;;;7.04
81319;BMP280;74078;48.420;14.828;2024-02-23T02:31:09;90726.84;;;6.84
81319;BMP280;74078;48.420;14.828;2024-02-23T02:33:35;90754.47;;;6.47
81319;BMP280;74078;48.420;14.828;2024-02-23T02:36:00;90755.69;;;5.97
81319;BMP280;74078;48.420;14.828;2024-02-23T02:38:25;90743.53;;;5.81
81319;BMP280;74078;48.420;14.828;2024-02-23T02:40:50;90759.72;;;5.59
81319;BMP280;74078;48.420;14.828;2024-02-23T02:43:16;90763.03;;;5.51
81319;BMP280;74078;48.420;14.828;2024-02-23T02:45:41;90775.09;;;5.47
81319;BMP280;74078;48.420;14.828;2024-02-23T02:48:06;90783.44;;;5.53
81319;BMP280;74078;48.420;14.828;2024-02-23T02:50:32;90777.09;;;5.43
81319;BMP280;74078;48.420;14.828;2024-02-23T02:52:57;90779.63;;;5.43
81319;BMP280;74078;48.420;14.828;2024-02-23T02:55:23;90784.47;;;5.46
81319;BMP280;74078;48.420;14.828;2024-02-23T02:57:48;90784.38;;;5.41
81319;BMP280;74078;48.420;14.828;2024-02-23T03:00:13;90786.59;;;5.48
81319;BMP280;74078;48.420;14.828;2024-02-23T03:02:38;90786.19;;;5.40
81319;BMP280;74078;48.420;14.828;2024-02-23T03:05:04;90793.28;;;5.36
81319;BMP280;74078;48.420;14.828;2024-02-23T03:07:29;90791.88;;;5.35
81319;BMP280;74078;48.420;14.828;2024-02-23T03:09:55;90798.78;;;5.40
81319;BMP280;74078;48.420;14.828;2024-02-23T03:12:20;90801.41;;;5.46
81319;BMP280;74078;48.420;14.828;2024-02-23T03:14:45;90801.00;;;5.47
81319;BMP280;74078;48.420;14.828;2024-02-23T03:17:10;90807.31;;;5.57
81319;BMP280;74078;48.420;14.828;2024-02-23T03:19:36;90819.22;;;5.28
81319;BMP280;74078;48.420;14.828;2024-02-23T03:22:01;90817.59;;;5.39
81319;BMP280;74078;48.420;14.828;2024-02-23T03:24:27;90817.41;;;5.43
81319;BMP280;74078;48.420;14.828;2024-02-23T03:26:52;90839.22;;;5.46
81319;BMP280;74078;48.420;14.828;2024-02-23T03:29:17;90818.63;;;5.47
81319;BMP280;74078;48.420;14.828;2024-02-23T03:31:42;90824.09;;;5.46
81319;BMP280;74078;48.420;14.828;2024-02-23T03:34:08;90827.84;;;5.36
81319;BMP280;74078;48.420;14.828;2024-02-23T03:36:33;90819.75;;;5.32
81319;BMP280;74078;48.420;14.828;2024-02-23T03:38:58;90825.22;;;5.45
81319;BMP280;74078;48.420;14.828;2024-02-23T03:41:24;90833.31;;;5.49
81319;BMP280;74078;48.420;14.828;2024-02-23T03:43:49;90836.84;;;5.42
81319;BMP280;74078;48.420;14.828;2024-02-23T03:46:14;90844.50;;;5.33
81319;BMP280;74078;48.420;14.828;2024-02-23T03:48:40;90854.53;;;5.19
81319;BMP280;74078;48.420;14.828;2024-02-23T03:51:05;90854.53;;;5.19
81319;BMP280;74078;48.420;14.828;2024-02-23T03:53:30;90854.16;;;5.35
81319;BMP280;74078;48.420;14.828;2024-02-23T03:55:56;90858.06;;;5.36
81319;BMP280;74078;48.420;14.828;2024-02-23T03:58:22;90854.47;;;5.28
81319;BMP280;74078;48.420;14.828;2024-02-23T04:00:47;90859.19;;;5.11
81319;BMP280;74078;48.420;14.828;2024-02-23T04:03:12;90850.38;;;5.16
81319;BMP280;74078;48.420;14.828;2024-02-23T04:05:37;90856.06;;;5.01
81319;BMP280;74078;48.420;14.828;2024-02-23T04:08:03;90855.47;;;5.06
81319;BMP280;74078;48.420;14.828;2024-02-23T04:10:28;90856.63;;;5.20
81319;BMP280;74078;48.420;14.828;2024-02-23T04:12:53;90849.53;;;5.09
81319;BMP280;74078;48.420;14.828;2024-02-23T04:15:18;90859.00;;;5.00
81319;BMP280;74078;48.420;14.828;2024-02-23T04:17:44;90869.19;;;5.05
81319;BMP280;74078;48.420;14.828;2024-02-23T04:20:10;90872.91;;;5.10
81319;BMP280;74078;48.420;14.828;2024-02-23T04:22:36;90877.69;;;5.08
81319;BMP280;74078;48.420;14.828;2024-02-23T04:25:01;90878.31;;;5.18
81319;BMP280;74078;48.420;14.828;2024-02-23T04:27:26;90887.00;;;4.93
81319;BMP280;74078;48.420;14.828;2024-02-23T04:29:51;90882.47;;;5.06
81319;BMP280;74078;48.420;14.828;2024-02-23T04:32:17;90887.41;;;5.00
81319;BMP280;74078;48.420;14.828;2024-02-23T04:34:42;90890.22;;;4.93
81319;BMP280;74078;48.420;14.828;2024-02-23T04:37:07;90901.00;;;4.94
81319;BMP280;74078;48.420;14.828;2024-02-23T04:39:33;90897.25;;;4.89
81319;BMP280;74078;48.420;14.828;2024-02-23T04:41:58;90899.69;;;4.98
81319;BMP280;74078;48.420;14.828;2024-02-23T04:44:23;90889.25;;;4.91
81319;BMP280;74078;48.420;14.828;2024-02-23T04:46:49;90895.81;;;4.97
81319;BMP280;74078;48.420;14.828;2024-02-23T04:49:14;90898.91;;;4.92
81319;BMP280;74078;48.420;14.828;2024-02-23T04:51:39;90900.28;;;4.93
81319;BMP280;74078;48.420;14.828;2024-02-23T04:54:04;90901.97;;;4.96
81319;BMP280;74078;48.420;14.828;2024-02-23T04:56:29;90898.91;;;4.92
81319;BMP280;74078;48.420;14.828;2024-02-23T04:58:55;90890.50;;;4.95
81319;BMP280;74078;48.420;14.828;2024-02-23T05:01:20;90895.56;;;4.86
81319;BMP280;74078;48.420;14.828;2024-02-23T05:03:45;90896.28;;;4.87
81319;BMP280;74078;48.420;14.828;2024-02-23T05:06:10;90890.03;;;4.82
81319;BMP280;74078;48.420;14.828;2024-02-23T05:08:36;90897.13;;;4.84
81319;BMP280;74078;48.420;14.828;2024-02-23T05:11:01;90893.00;;;4.95
81319;BMP280;74078;48.420;14.828;2024-02-23T05:13:26;90894.91;;;4.86
81319;BMP280;74078;48.420;14.828;2024-02-23T05:15:51;90898.13;;;4.77
81319;BMP280;74078;48.420;14.828;2024-02-23T05:18:17;90892.09;;;4.84
81319;BMP280;74078;48.420;14.828;2024-02-23T05:20:42;90884.31;;;5.05
81319;BMP280;74078;48.420;14.828;2024-02-23T05:23:07;90883.03;;;4.77
81319;BMP280;74078;48.420;14.828;2024-02-23T05:25:33;90896.34;;;5.01
81319;BMP280;74078;48.420;14.828;2024-02-23T05:27:58;90895.50;;;5.04
81319;BMP280;74078;48.420;14.828;2024-02-23T05:30:23;90900.13;;;4.97
81319;BMP280;74078;48.420;14.828;2024-02-23T05:32:48;90892.31;;;4.95
81319;BMP280;74078;48.420;14.828;2024-02-23T05:35:14;90902.75;;;5.02
81319;BMP280;74078;48.420;14.828;2024-02-23T05:37:40;90894.50;;;4.78
81319;BMP280;74078;48.420;14.828;2024-02-23T05:40:06;90896.72;;;4.85
81319;BMP280;74078;48.420;14.828;2024-02-23T05:42:35;90903.56;;;4.85
81319;BMP280;74078;48.420;14.828;2024-02-23T05:45:00;90904.81;;;4.89
81319;BMP280;74078;48.420;14.828;2024-02-23T05:47:25;90898.91;;;4.92
81319;BMP280;74078;48.420;14.828;2024-02-23T05:49:50;90888.72;;;4.63
81319;BMP280;74078;48.420;14.828;2024-02-23T05:52:16;90892.59;;;4.64
81319;BMP280;74078;48.420;14.828;2024-02-23T05:54:41;90899.03;;;4.56
81319;BMP280;74078;48.420;14.828;2024-02-23T05:57:06;90900.91;;;4.79
81319;BMP280;74078;48.420;14.828;2024-02-23T05:59:31;90902.16;;;4.84
81319;BMP280;74078;48.420;14.828;2024-02-23T06:01:57;90904.41;;;4.82
81319;BMP280;74078;48.420;14.828;2024-02-23T06:04:25;90905.56;;;4.72
81319;BMP280;74078;48.420;14.828;2024-02-23T06:06:50;90912.19;;;4.60
81319;BMP280;74078;48.420;14.828;2024-02-23T06:09:15;90910.50;;;4.57
81319;BMP280;74078;48.420;14.828;2024-02-23T06:11:41;90905.19;;;4.64
81319;BMP280;74078;48.420;14.828;2024-02-23T06:14:07;90904.63;;;4.60
81319;BMP280;74078;48.420;14.828;2024-02-23T06:16:32;90901.56;;;4.56
81319;BMP280;74078;48.420;14.828;2024-02-23T06:18:57;90910.38;;;4.61
81319;BMP280;74078;48.420;14.828;2024-02-23T06:21:23;90914.13;;;4.56
81319;BMP280;74078;48.420;14.828;2024-02-23T06:23:48;90907.59;;;4.59
81319;BMP280;74078;48.420;14.828;2024-02-23T06:26:13;90917.03;;;4.31
81319;BMP280;74078;48.420;14.828;2024-02-23T06:28:39;90918.00;;;4.33
81319;BMP280;74078;48.420;14.828;2024-02-23T06:31:06;90932.44;;;4.24
81319;BMP280;74078;48.420;14.828;2024-02-23T06:33:31;90923.94;;;4.12
81319;BMP280;74078;48.420;14.828;2024-02-23T06:35:57;90927.94;;;4.19
81319;BMP280;74078;48.420;14.828;2024-02-23T06:38:22;90938.16;;;4.15
81319;BMP280;74078;48.420;14.828;2024-02-23T06:40:47;90929.06;;;4.27
81319;BMP280;74078;48.420;14.828;2024-02-23T06:43:13;90918.13;;;4.39
81319;BMP280;74078;48.420;14.828;2024-02-23T06:45:38;90932.09;;;4.40
81319;BMP280;74078;48.420;14.828;2024-02-23T06:48:03;90923.28;;;4.44
81319;BMP280;74078;48.420;14.828;2024-02-23T06:50:29;90925.28;;;4.31
81319;BMP280;74078;48.420;14.828;2024-02-23T06:52:54;90942.47;;;4.15
81319;BMP280;74078;48.420;14.828;2024-02-23T06:55:19;90943.63;;;4.14
81319;BMP280;74078;48.420;14.828;2024-02-23T06:57:44;90947.78;;;4.17
81319;BMP280;74078;48.420;14.828;2024-02-23T07:00:10;90954.81;;;4.13
81319;BMP280;74078;48.420;14.828;2024-02-23T07:02:35;90958.38;;;4.21
81319;BMP280;74078;48.420;14.828;2024-02-23T07:05:02;90948.91;;;4.16
81319;BMP280;74078;48.420;14.828;2024-02-23T07:07:31;90962.34;;;4.03
81319;BMP280;74078;48.420;14.828;2024-02-23T07:09:58;90946.66;;;4.18
81319;BMP280;74078;48.420;14.828;2024-02-23T07:12:23;90953.78;;;4.19
81319;BMP280;74078;48.420;14.828;2024-02-23T07:14:49;90955.03;;;4.15
81319;BMP280;74078;48.420;14.828;2024-02-23T07:17:17;90955.06;;;4.06
81319;BMP280;74078;48.420;14.828;2024-02-23T07:19:42;90957.91;;;3.89
81319;BMP280;74078;48.420;14.828;2024-02-23T07:22:07;90953.13;;;4.00
81319;BMP280;74078;48.420;14.828;2024-02-23T07:24:32;90957.59;;;3.96
81319;BMP280;74078;48.420;14.828;2024-02-23T07:26:58;90954.94;;;4.00
81319;BMP280;74078;48.420;14.828;2024-02-23T07:29:23;90965.13;;;3.87
81319;BMP280;74078;48.420;14.828;2024-02-23T07:31:48;90989.69;;;3.83
81319;BMP280;74078;48.420;14.828;2024-02-23T07:34:13;90988.19;;;3.86
81319;BMP280;74078;48.420;14.828;2024-02-23T07:36:39;90985.66;;;3.95
81319;BMP280;74078;48.420;14.828;2024-02-23T07:39:04;90991.41;;;4.05
81319;BMP280;74078;48.420;14.828;2024-02-23T07:41:29;90986.09;;;4.12
81319;BMP280;74078;48.420;14.828;2024-02-23T07:43:54;90987.75;;;4.06
81319;BMP280;74078;48.420;14.828;2024-02-23T07:46:20;90985.91;;;4.15
81319;BMP280;74078;48.420;14.828;2024-02-23T07:48:47;90980.47;;;4.17
81319;BMP280;74078;48.420;14.828;2024-02-23T07:51:13;90990.00;;;4.13
81319;BMP280;74078;48.420;14.828;2024-02-23T07:53:38;90981.88;;;4.18
81319;BMP280;74078;48.420;14.828;2024-02-23T07:56:04;90984.38;;;4.18
81319;BMP280;74078;48.420;14.828;2024-02-23T07:58:29;90982.13;;;4.29
81319;BMP280;74078;48.420;14.828;2024-02-23T08:00:55;90978.38;;;4.15
81319;BMP280;74078;48.420;14.828;2024-02-23T08:03:20;90980.47;;;4.17
81319;BMP280;74078;48.420;14.828;2024-02-23T08:05:45;90978.53;;;4.12
81319;BMP280;74078;48.420;14.828;2024-02-23T08:08:10;90978.53;;;4.12
81319;BMP280;74078;48.420;14.828;2024-02-23T08:10:35;90975.16;;;4.15
81319;BMP280;74078;48.420;14.828;2024-02-23T08:13:01;90960.09;;;4.24
81319;BMP280;74078;48.420;14.828;2024-02-23T08:15:26;90950.28;;;4.26
81319;BMP280;74078;48.420;14.828;2024-02-23T08:17:51;90959.09;;;4.21
81319;BMP280;74078;48.420;14.828;2024-02-23T08:20:16;90957.28;;;4.22
81319;BMP280;74078;48.420;14.828;2024-02-23T08:22:42;90969.84;;;4.31
81319;BMP280;74078;48.420;14.828;2024-02-23T08:25:07;90986.78;;;4.03
81319;BMP280;74078;48.420;14.828;2024-02-23T08:27:33;90986.19;;;4.17
81319;BMP280;74078;48.420;14.828;2024-02-23T08:29:58;90987.72;;;4.15
81319;BMP280;74078;48.420;14.828;2024-02-23T08:32:24;90989.13;;;4.16
81319;BMP280;74078;48.420;14.828;2024-02-23T08:34:49;90990.97;;;4.24
81319;BMP280;74078;48.420;14.828;2024-02-23T08:37:15;90997.13;;;4.05
81319;BMP280;74078;48.420;14.828;2024-02-23T08:39:40;90991.66;;;4.07
81319;BMP280;74078;48.420;14.828;2024-02-23T08:42:05;90991.66;;;4.16
81319;BMP280;74078;48.420;14.828;2024-02-23T08:44:30;90996.81;;;4.21
81319;BMP280;74078;48.420;14.828;2024-02-23T08:46:56;91006.03;;;4.15
81319;BMP280;74078;48.420;14.828;2024-02-23T08:49:21;91000.28;;;4.42
81319;BMP280;74078;48.420;14.828;2024-02-23T08:51:46;90995.47;;;4.71
81319;BMP280;74078;48.420;14.828;2024-02-23T08:54:11;90998.31;;;4.97
81319;BMP280;74078;48.420;14.828;2024-02-23T08:56:40;91001.72;;;4.85
81319;BMP280;74078;48.420;14.828;2024-02-23T08:59:07;90994.31;;;4.81
81319;BMP280;74078;48.420;14.828;2024-02-23T09:01:32;91002.91;;;4.98
81319;BMP280;74078;48.420;14.828;2024-02-23T09:03:57;91006.78;;;4.76
81319;BMP280;74078;48.420;14.828;2024-02-23T09:06:23;91011.59;;;4.46
81319;BMP280;74078;48.420;14.828;2024-02-23T09:08:48;91000.13;;;4.54
81319;BMP280;74078;48.420;14.828;2024-02-23T09:11:13;91004.97;;;4.67
81319;BMP280;74078;48.420;14.828;2024-02-23T09:13:40;91008.91;;;4.68
81319;BMP280;74078;48.420;14.828;2024-02-23T09:16:07;91004.44;;;4.63
81319;BMP280;74078;48.420;14.828;2024-02-23T09:18:32;91009.19;;;4.70
81319;BMP280;74078;48.420;14.828;2024-02-23T09:20:57;90993.63;;;4.90
81319;BMP280;74078;48.420;14.828;2024-02-23T09:23:24;91001.31;;;4.77
81319;BMP280;74078;48.420;14.828;2024-02-23T09:25:49;91002.44;;;4.85
81319;BMP280;74078;48.420;14.828;2024-02-23T09:28:14;91001.59;;;4.79
81319;BMP280;74078;48.420;14.828;2024-02-23T09:30:40;90985.78;;;4.79
81319;BMP280;74078;48.420;14.828;2024-02-23T09:33:05;90975.38;;;5.28
81319;BMP280;74078;48.420;14.828;2024-02-23T09:35:30;90977.94;;;5.42
81319;BMP280;74078;48.420;14.828;2024-02-23T09:37:55;90986.66;;;5.56
81319;BMP280;74078;48.420;14.828;2024-02-23T09:40:21;90977.19;;;5.03
81319;BMP280;74078;48.420;14.828;2024-02-23T09:42:48;90986.19;;;5.19
81319;BMP280;74078;48.420;14.828;2024-02-23T09:45:17;90977.69;;;5.17
81319;BMP280;74078;48.420;14.828;2024-02-23T09:47:42;90981.88;;;5.10
81319;BMP280;74078;48.420;14.828;2024-02-23T09:50:08;90973.78;;;4.74
81319;BMP280;74078;48.420;14.828;2024-02-23T09:52:34;90975.44;;;5.09
81319;BMP280;74078;48.420;14.828;2024-02-23T09:54:59;90978.84;;;5.30
81319;BMP280;74078;48.420;14.828;2024-02-23T09:57:25;90982.72;;;5.17
81319;BMP280;74078;48.420;14.828;2024-02-23T09:59:50;90978.44;;;5.32
81319;BMP280;74078;48.420;14.828;2024-02-23T10:02:17;90978.81;;;5.39
81319;BMP280;74078;48.420;14.828;2024-02-23T10:04:42;90981.88;;;5.43
81319;BMP280;74078;48.420;14.828;2024-02-23T10:07:14;90975.72;;;5.21
81319;BMP280;74078;48.420;14.828;2024-02-23T10:09:40;90977.25;;;5.42
81319;BMP280;74078;48.420;14.828;2024-02-23T10:12:05;90978.09;;;5.62
81319;BMP280;74078;48.420;14.828;2024-02-23T10:14:31;90983.44;;;5.79
81319;BMP280;74078;48.420;14.828;2024-02-23T10:16:56;90977.56;;;5.82
81319;BMP280;74078;48.420;14.828;2024-02-23T10:19:22;90990.09;;;5.68
81319;BMP280;74078;48.420;14.828;2024-02-23T10:21:47;90993.38;;;5.59
81319;BMP280;74078;48.420;14.828;2024-02-23T10:24:15;90991.34;;;5.48
81319;BMP280;74078;48.420;14.828;2024-02-23T10:26:41;90993.44;;;5.50
81319;BMP280;74078;48.420;14.828;2024-02-23T10:29:06;91003.19;;;5.57
81319;BMP280;74078;48.420;14.828;2024-02-23T10:31:34;91005.50;;;5.46
81319;BMP280;74078;48.420;14.828;2024-02-23T10:34:01;91008.81;;;5.52
81319;BMP280;74078;48.420;14.828;2024-02-23T10:36:29;91005.84;;;5.39
81319;BMP280;74078;48.420;14.828;2024-02-23T10:38:55;91001.69;;;5.27
81319;BMP280;74078;48.420;14.828;2024-02-23T10:41:21;91000.75;;;5.48
81319;BMP280;74078;48.420;14.828;2024-02-23T10:43:47;90994.59;;;5.63
81319;BMP280;74078;48.420;14.828;2024-02-23T10:46:13;90997.47;;;5.71
81319;BMP280;74078;48.420;14.828;2024-02-23T10:48:40;90991.41;;;5.63
81319;BMP280;74078;48.420;14.828;2024-02-23T10:51:06;90985.38;;;5.60
81319;BMP280;74078;48.420;14.828;2024-02-23T10:53:31;90981.53;;;5.27
81319;BMP280;74078;48.420;14.828;2024-02-23T10:55:56;90979.19;;;5.23
81319;BMP280;74078;48.420;14.828;2024-02-23T10:58:25;90974.22;;;5.38
81319;BMP280;74078;48.420;14.828;2024-02-23T11:00:50;90969.19;;;5.29
81319;BMP280;74078;48.420;14.828;2024-02-23T11:03:15;90967.50;;;5.35
81319;BMP280;74078;48.420;14.828;2024-02-23T11:05:41;90967.81;;;5.28
81319;BMP280;74078;48.420;14.828;2024-02-23T11:08:06;90971.88;;;5.01
81319;BMP280;74078;48.420;14.828;2024-02-23T11:10:40;90978.66;;;5.19
81319;BMP280;74078;48.420;14.828;2024-02-23T11:13:07;90980.66;;;5.30
81319;BMP280;74078;48.420;14.828;2024-02-23T11:15:33;90977.03;;;5.31
81319;BMP280;74078;48.420;14.828;2024-02-23T11:18:04;90977.00;;;5.07
81319;BMP280;74078;48.420;14.828;2024-02-23T11:20:52;90970.38;;;5.19
81319;BMP280;74078;48.420;14.828;2024-02-23T11:23:18;90977.03;;;5.31
81319;BMP280;74078;48.420;14.828;2024-02-23T11:25:57;90979.16;;;4.90
81319;BMP280;74078;48.420;14.828;2024-02-23T11:28:26;90977.47;;;4.96
81319;BMP280;74078;48.420;14.828;2024-02-23T11:30:51;90984.41;;;5.10
81319;BMP280;74078;48.420;14.828;2024-02-23T11:33:25;90977.91;;;4.95
81319;BMP280;74078;48.420;14.828;2024-02-23T11:35:51;90969.28;;;5.20
81319;BMP280;74078;48.420;14.828;2024-02-23T11:38:17;90958.66;;;5.16
81319;BMP280;74078;48.420;14.828;2024-02-23T11:40:43;90963.72;;;5.39
81319;BMP280;74078;48.420;14.828;2024-02-23T11:43:08;90960.81;;;5.32
81319;BMP280;74078;48.420;14.828;2024-02-23T11:45:35;90956.84;;;5.16
81319;BMP280;74078;48.420;14.828;2024-02-23T11:48:00;90955.28;;;5.19
81319;BMP280;74078;48.420;14.828;2024-02-23T11:50:25;90949.50;;;5.51
81319;BMP280;74078;48.420;14.828;2024-02-23T11:52:50;90947.91;;;5.39
81319;BMP280;74078;48.420;14.828;2024-02-23T11:55:19;90951.09;;;5.16
81319;BMP280;74078;48.420;14.828;2024-02-23T11:57:48;90945.94;;;5.10
81319;BMP280;74078;48.420;14.828;2024-02-23T12:00:13;90940.72;;;5.23
81319;BMP280;74078;48.420;14.828;2024-02-23T12:02:38;90934.81;;;5.40
81319;BMP280;74078;48.420;14.828;2024-02-23T12:05:04;90942.84;;;5.15
81319;BMP280;74078;48.420;14.828;2024-02-23T12:07:29;90933.41;;;5.01
81319;BMP280;74078;48.420;14.828;2024-02-23T12:09:55;90928.34;;;4.77
81319;BMP280;74078;48.420;14.828;2024-02-23T12:12:21;90926.28;;;4.99
81319;BMP280;74078;48.420;14.828;2024-02-23T12:14:47;90929.09;;;4.92
81319;BMP280;74078;48.420;14.828;2024-02-23T12:17:12;90932.56;;;4.71
81319;BMP280;74078;48.420;14.828;2024-02-23T12:19:38;90927.56;;;4.62
81319;BMP280;74078;48.420;14.828;2024-02-23T12:22:04;90930.34;;;4.64
81319;BMP280;74078;48.420;14.828;2024-02-23T12:24:30;90930.13;;;4.53
81319;BMP280;74078;48.420;14.828;2024-02-23T12:26:55;90927.00;;;4.58
81319;BMP280;74078;48.420;14.828;2024-02-23T12:29:21;90932.09;;;4.40
81319;BMP280;74078;48.420;14.828;2024-02-23T12:31:46;90925.38;;;4.46
81319;BMP280;74078;48.420;14.828;2024-02-23T12:34:11;90922.69;;;4.59
81319;BMP280;74078;48.420;14.828;2024-02-23T12:36:37;90914.84;;;4.66
81319;BMP280;74078;48.420;14.828;2024-02-23T12:39:03;90912.28;;;4.98
81319;BMP280;74078;48.420;14.828;2024-02-23T12:41:29;90910.69;;;5.34
81319;BMP280;74078;48.420;14.828;2024-02-23T12:43:54;90913.94;;;5.49
81319;BMP280;74078;48.420;14.828;2024-02-23T12:46:19;90916.47;;;5.63
81319;BMP280;74078;48.420;14.828;2024-02-23T12:48:44;90922.53;;;5.57
81319;BMP280;74078;48.420;14.828;2024-02-23T12:51:10;90908.34;;;5.45
81319;BMP280;74078;48.420;14.828;2024-02-23T12:53:39;90919.88;;;5.22
81319;BMP280;74078;48.420;14.828;2024-02-23T12:56:08;90921.84;;;5.18
81319;BMP280;74078;48.420;14.828;2024-02-23T12:58:35;90913.75;;;5.38
81319;BMP280;74078;48.420;14.828;2024-02-23T13:01:00;90918.75;;;5.23
81319;BMP280;74078;48.420;14.828;2024-02-23T13:03:26;90915.72;;;5.34
81319;BMP280;74078;48.420;14.828;2024-02-23T13:05:52;90918.88;;;5.82
81319;BMP280;74078;48.420;14.828;2024-02-23T13:08:18;90918.47;;;6.12
81319;BMP280;74078;48.420;14.828;2024-02-23T13:10:44;90897.84;;;5.32
81319;BMP280;74078;48.420;14.828;2024-02-23T13:13:09;90902.56;;;5.39
81319;BMP280;74078;48.420;14.828;2024-02-23T13:15:34;90899.47;;;5.11
81319;BMP280;74078;48.420;14.828;2024-02-23T13:18:02;90897.50;;;4.91
81319;BMP280;74078;48.420;14.828;2024-02-23T13:20:27;90902.47;;;4.77
81319;BMP280;74078;48.420;14.828;2024-02-23T13:22:53;90904.56;;;4.78
81319;BMP280;74078;48.420;14.828;2024-02-23T13:25:18;90901.13;;;4.67
81319;BMP280;74078;48.420;14.828;2024-02-23T13:27:43;90901.03;;;5.08
81319;BMP280;74078;48.420;14.828;2024-02-23T13:30:08;90897.09;;;5.17
81319;BMP280;74078;48.420;14.828;2024-02-23T13:32:34;90890.00;;;5.30
81319;BMP280;74078;48.420;14.828;2024-02-23T13:34:59;90890.69;;;5.54
81319;BMP280;74078;48.420;14.828;2024-02-23T13:37:29;90889.56;;;5.70
81319;BMP280;74078;48.420;14.828;2024-02-23T13:39:54;90878.78;;;5.69
81319;BMP280;74078;48.420;14.828;2024-02-23T13:42:20;90888.50;;;5.91
81319;BMP280;74078;48.420;14.828;2024-02-23T13:44:45;90888.34;;;5.94
81319;BMP280;74078;48.420;14.828;2024-02-23T13:47:11;90891.47;;;5.89
81319;BMP280;74078;48.420;14.828;2024-02-23T13:49:36;90881.63;;;5.62
81319;BMP280;74078;48.420;14.828;2024-02-23T13:52:02;90881.13;;;5.87
81319;BMP280;74078;48.420;14.828;2024-02-23T13:54:27;90868.75;;;5.60
81319;BMP280;74078;48.420;14.828;2024-02-23T13:56:52;90870.50;;;5.16
81319;BMP280;74078;48.420;14.828;2024-02-23T13:59:17;90871.63;;;5.15